Skip Navigation Links Skip Navigation Links

Current Weather

Ronald Reagan Washington National, Washington

For information only: do not use for flight planning or navigation.
Latest weather
Observation time Tuesday, October 17, 2017 1:52 AM EDT
Local time Tuesday, October 17, 2017 2:03 AM EDT
Flight conditions Visual Meteorological Conditions
Winds
Wind direction North-Northwest (330°)
Wind speed 7 mph
Visibility 10 mi.
Sky condition
Ceiling unlimited
Sky clear
Temperature 50°F
Dewpoint 38°F
Altimeter 30.28 in.Hg
Pressure change last 3 hours-0.03 in.Hg
Pressure rising more slowly
Derived measurements
Relative humidity 63%
Wind chill 47°F
Density altitude -878 ft.
Sea-level pressure 30.28 in.Hg
Climate data
Temperature minimum, last 6 hours 50°F
Temperature maximum, last 6 hours 59°F
Remarks
Automated weather observing station with precipitation discriminator.
METAR KDCA 170552Z 33006KT 10SM CLR 10/03 A3028 RMK AO2 SLP253 T01000033 10150 20100 51010

Settings

Location code

InnerDrive.Weather 4.0.6144.1 Release CLR 4.0.30319.36366
Copyright ©2015 Inner Drive Technology. All rights reserved. Portions Copyright ©1986-2015 David Braverman.

Find weather

Site navigation


Skip Navigation Links

Place info

Page info

PayPal - The safer, easier way to pay online!

Return home.

Copyright ©2017 Inner Drive Technology. Purveyors of fine, hand-crafted computer software. Page printed 2017-10-17T06:03:15 UTC.